createdAt,value
2022-09-22T00:00:08.424Z,51.83
2022-09-22T00:02:57.668Z,53.73
2022-09-22T00:05:46.046Z,51.33
2022-09-22T00:08:45.260Z,50.37
2022-09-22T00:11:36.424Z,48.80
2022-09-22T00:14:28.834Z,47.70
2022-09-22T00:17:17.304Z,46.13
2022-09-22T00:20:06.172Z,44.63
2022-09-22T00:22:55.649Z,43.23
2022-09-22T00:25:43.944Z,44.27
2022-09-22T00:28:39.226Z,42.13
2022-09-22T00:31:29.970Z,44.13
2022-09-22T00:34:20.712Z,43.57
2022-09-22T00:37:09.086Z,43.57
2022-09-22T00:39:57.405Z,43.57
2022-09-22T00:42:54.837Z,43.57
2022-09-22T00:45:43.928Z,45.60
2022-09-22T00:48:49.668Z,46.73
2022-09-22T00:51:41.451Z,49.20
2022-09-22T00:54:30.519Z,49.17
2022-09-22T00:57:32.262Z,47.27
2022-09-22T01:00:20.977Z,47.93
2022-09-22T01:03:24.050Z,47.67
2022-09-22T01:06:20.290Z,47.80
2022-09-22T01:09:09.857Z,47.57
2022-09-22T01:12:05.798Z,47.17
2022-09-22T01:15:06.435Z,46.97
2022-09-22T01:18:12.860Z,46.63
2022-09-22T01:21:20.477Z,46.77
2022-09-22T01:24:47.840Z,46.73
2022-09-22T01:28:07.193Z,49.20
2022-09-22T01:31:01.943Z,51.10
2022-09-22T01:33:54.307Z,51.97
2022-09-22T01:36:50.829Z,50.00
2022-09-22T01:39:43.645Z,51.53
2022-09-22T01:42:38.449Z,51.87
2022-09-22T01:45:31.870Z,51.53
2022-09-22T01:48:26.513Z,52.87
2022-09-22T01:51:19.770Z,53.03
2022-09-22T01:54:15.340Z,52.73
2022-09-22T01:57:12.347Z,52.47
2022-09-22T02:00:08.639Z,52.10
2022-09-22T02:03:08.590Z,52.20
2022-09-22T02:06:02.796Z,54.03
2022-09-22T02:08:56.791Z,56.00
2022-09-22T02:11:45.590Z,54.80
2022-09-22T02:14:34.160Z,54.53
2022-09-22T02:17:32.975Z,55.00
2022-09-22T02:20:25.833Z,57.43
2022-09-22T02:23:15.767Z,56.93
2022-09-22T02:26:05.586Z,58.03
2022-09-22T02:28:56.739Z,60.87
2022-09-22T02:31:46.310Z,61.57
2022-09-22T02:34:41.226Z,61.83
2022-09-22T02:37:38.296Z,64.13
2022-09-22T02:40:31.905Z,63.17
2022-09-22T02:43:25.524Z,65.43
2022-09-22T02:46:21.344Z,65.80
2022-09-22T02:49:14.980Z,66.50
2022-09-22T02:52:03.628Z,68.00
2022-09-22T02:54:53.095Z,66.23
2022-09-22T02:57:52.252Z,69.03
2022-09-22T03:00:40.724Z,69.30
2022-09-22T03:03:38.126Z,69.87
2022-09-22T03:06:26.444Z,72.80
2022-09-22T03:09:23.757Z,72.67
2022-09-22T03:12:12.440Z,73.43
2022-09-22T03:15:12.558Z,73.23
2022-09-22T03:18:01.089Z,74.27
2022-09-22T03:20:52.479Z,74.17
2022-09-22T03:23:40.877Z,72.70
2022-09-22T03:26:38.364Z,74.10
2022-09-22T03:29:26.804Z,72.93
2022-09-22T03:32:26.012Z,73.90
2022-09-22T03:35:14.314Z,74.23
2022-09-22T03:38:12.030Z,73.60
2022-09-22T03:41:01.468Z,74.53
2022-09-22T03:43:58.752Z,72.87
2022-09-22T03:46:47.106Z,72.57
2022-09-22T03:49:45.894Z,75.23
2022-09-22T03:52:34.904Z,75.20
2022-09-22T03:55:23.221Z,73.37
2022-09-22T03:58:20.006Z,75.77
2022-09-22T04:01:10.334Z,74.97
2022-09-22T04:04:04.764Z,75.17
2022-09-22T04:06:54.577Z,69.13
2022-09-22T04:09:49.041Z,73.83
2022-09-22T04:12:37.890Z,74.73
2022-09-22T04:15:26.396Z,72.07
2022-09-22T04:18:16.123Z,69.13
2022-09-22T04:21:05.633Z,69.60
2022-09-22T04:23:55.365Z,71.70
2022-09-22T04:27:15.252Z,64.57
2022-09-22T04:29:58.049Z,65.87
2022-09-22T04:32:46.537Z,66.63
2022-09-22T04:35:44.059Z,64.90
2022-09-22T04:38:32.607Z,65.43
2022-09-22T04:41:31.865Z,66.90
2022-09-22T04:44:20.330Z,64.83
2022-09-22T04:47:17.767Z,64.23
2022-09-22T04:50:06.684Z,62.90
2022-09-22T04:52:56.813Z,62.63
2022-09-22T04:55:51.893Z,61.40
2022-09-22T04:58:41.833Z,61.70
2022-09-22T05:01:30.431Z,63.90
2022-09-22T05:04:18.961Z,63.37
2022-09-22T05:07:07.325Z,62.37
2022-09-22T05:09:55.681Z,62.37
2022-09-22T05:12:45.305Z,61.17
2022-09-22T05:15:35.218Z,62.30
2022-09-22T05:18:23.733Z,61.17
2022-09-22T05:21:21.403Z,59.10
2022-09-22T05:24:09.948Z,58.73
2022-09-22T05:26:58.337Z,57.60
2022-09-22T05:29:47.265Z,53.03
2022-09-22T05:32:37.054Z,52.47
2022-09-22T05:35:26.310Z,51.20
2022-09-22T05:38:14.699Z,49.47
2022-09-22T05:41:03.806Z,48.37
2022-09-22T05:43:52.235Z,49.70
2022-09-22T05:46:40.647Z,50.60
2022-09-22T05:49:33.094Z,50.60
2022-09-22T05:52:21.543Z,51.10
2022-09-22T05:55:10.950Z,51.17
2022-09-22T05:58:11.834Z,52.10
2022-09-22T06:01:00.400Z,51.47
2022-09-22T06:03:57.976Z,50.20
2022-09-22T06:06:47.918Z,48.97
2022-09-22T06:09:45.254Z,48.53
2022-09-22T06:12:33.655Z,47.83
2022-09-22T06:15:33.974Z,45.50
2022-09-22T06:18:24.950Z,42.23
2022-09-22T06:21:13.460Z,39.77
2022-09-22T06:24:09.168Z,38.77
2022-09-22T06:26:57.553Z,36.93
2022-09-22T06:29:45.972Z,34.93
2022-09-22T06:32:34.399Z,33.53
2022-09-22T06:35:22.918Z,31.47
2022-09-22T06:38:15.015Z,31.67
2022-09-22T06:41:07.430Z,32.00
2022-09-22T06:43:56.288Z,33.40
2022-09-22T06:46:45.827Z,34.00
2022-09-22T06:49:43.266Z,32.73
2022-09-22T06:52:31.892Z,32.90
2022-09-22T06:55:20.947Z,31.53
2022-09-22T06:58:21.999Z,29.67
2022-09-22T07:01:10.875Z,30.47
2022-09-22T07:04:02.730Z,29.70
2022-09-22T07:06:51.514Z,29.53
2022-09-22T07:09:48.886Z,28.23
2022-09-22T07:12:37.224Z,25.67
2022-09-22T07:15:27.983Z,23.70
2022-09-22T07:18:16.579Z,21.13
2022-09-22T07:21:15.776Z,19.30
2022-09-22T07:24:08.365Z,18.00
2022-09-22T07:26:56.873Z,17.53
2022-09-22T07:29:49.472Z,16.83
2022-09-22T07:32:39.056Z,16.13
2022-09-22T07:35:35.332Z,16.03
2022-09-22T07:38:24.387Z,15.50
2022-09-22T07:41:14.821Z,16.17
2022-09-22T07:44:23.832Z,16.20
2022-09-22T07:47:12.258Z,16.07
2022-09-22T07:50:04.928Z,16.70
2022-09-22T07:52:53.423Z,16.60
2022-09-22T07:55:41.799Z,14.70
2022-09-22T07:58:30.951Z,14.60
2022-09-22T08:01:29.137Z,13.80
2022-09-22T08:04:22.886Z,13.20
2022-09-22T08:07:15.212Z,12.70
2022-09-22T08:10:03.789Z,12.23
2022-09-22T08:12:53.071Z,12.93
2022-09-22T08:15:42.287Z,11.50
2022-09-22T08:18:40.924Z,11.90
2022-09-22T08:21:33.000Z,11.47
2022-09-22T08:24:23.847Z,10.77
2022-09-22T08:27:12.521Z,9.63
2022-09-22T08:30:04.205Z,9.57
2022-09-22T08:32:53.612Z,8.53
2022-09-22T08:35:53.503Z,8.10
2022-09-22T08:38:43.021Z,7.67
2022-09-22T08:41:41.591Z,8.20
2022-09-22T08:44:37.481Z,7.20
2022-09-22T08:47:50.580Z,8.77
2022-09-22T08:51:06.953Z,8.63
2022-09-22T08:54:00.920Z,8.07
2022-09-22T08:57:03.233Z,7.73
2022-09-22T08:59:57.163Z,7.13
2022-09-22T09:02:50.786Z,7.43
2022-09-22T09:06:04.484Z,7.33
2022-09-22T09:09:28.163Z,7.03
2022-09-22T09:12:29.648Z,6.03
2022-09-22T09:15:41.764Z,6.83
2022-09-22T09:18:34.358Z,7.60
2022-09-22T13:14:45.308Z,4.30
2022-09-22T13:17:34.532Z,4.25
2022-09-22T13:20:25.630Z,5.45
2022-09-22T13:23:20.196Z,4.65
2022-09-22T13:26:09.388Z,4.57
2022-09-22T13:29:03.358Z,5.38
2022-09-22T13:31:55.500Z,4.47
2022-09-22T13:34:43.854Z,4.50
2022-09-22T13:37:41.026Z,5.32
2022-09-22T13:40:34.933Z,4.30
2022-09-22T13:43:29.591Z,5.28
2022-09-22T13:46:24.178Z,5.18
2022-09-22T13:49:19.250Z,6.07
2022-09-22T13:52:10.591Z,6.82
2022-09-22T13:55:01.668Z,6.70
2022-09-22T13:57:50.228Z,5.22
2022-09-22T14:01:08.634Z,5.50
2022-09-22T14:03:52.675Z,4.90
2022-09-22T14:06:42.505Z,5.18
2022-09-22T14:09:39.899Z,5.97
2022-09-22T14:12:29.639Z,5.82
2022-09-22T14:15:43.495Z,5.70
2022-09-22T14:18:32.502Z,5.30
2022-09-22T14:21:27.159Z,5.82
2022-09-22T14:24:17.504Z,5.85
2022-09-22T14:27:20.775Z,5.73
2022-09-22T14:30:17.755Z,6.20
2022-09-22T14:33:06.379Z,6.00
2022-09-22T14:36:08.205Z,6.10
2022-09-22T14:39:10.185Z,6.53
2022-09-22T14:42:09.051Z,7.20
2022-09-22T14:45:17.886Z,7.53
2022-09-22T14:48:18.505Z,7.23
2022-09-22T14:51:10.466Z,7.53
2022-09-22T14:54:03.900Z,7.90
2022-09-22T14:56:52.364Z,7.77
2022-09-22T15:00:15.320Z,7.90
2022-09-22T15:03:07.599Z,7.77
2022-09-22T15:06:07.428Z,8.30
2022-09-22T15:08:55.708Z,8.97
2022-09-22T15:11:48.997Z,9.33
2022-09-22T15:14:43.978Z,9.63
2022-09-22T15:18:04.576Z,9.87
2022-09-22T15:20:57.427Z,10.73
2022-09-22T15:23:49.418Z,10.97
2022-09-22T15:26:38.668Z,11.67
2022-09-22T15:29:36.357Z,11.93
2022-09-22T15:32:24.855Z,12.03
2022-09-22T15:35:15.683Z,11.40
2022-09-22T15:38:04.766Z,11.47
2022-09-22T15:41:02.053Z,12.67
2022-09-22T15:43:50.607Z,13.10
2022-09-22T15:46:51.549Z,13.43
2022-09-22T15:49:40.265Z,14.43
2022-09-22T15:52:36.015Z,15.33
2022-09-22T15:55:25.520Z,15.57
2022-09-22T15:58:22.936Z,15.63
2022-09-22T16:01:11.557Z,16.37
2022-09-22T16:04:07.089Z,17.10
2022-09-22T16:07:01.317Z,17.60
2022-09-22T16:09:51.053Z,17.40
2022-09-22T16:12:41.680Z,16.87
2022-09-22T16:15:32.287Z,16.30
2022-09-22T16:18:20.612Z,16.00
2022-09-22T16:21:22.305Z,16.07
2022-09-22T16:24:12.057Z,15.90
2022-09-22T16:27:07.577Z,16.20
2022-09-22T16:29:56.001Z,16.40
2022-09-22T16:32:44.406Z,17.20
2022-09-22T16:35:32.651Z,17.40
2022-09-22T16:38:20.934Z,17.63
2022-09-22T16:41:20.834Z,18.47
2022-09-22T16:44:10.530Z,19.40
2022-09-22T16:46:59.216Z,18.67
2022-09-22T16:49:51.485Z,19.23
2022-09-22T16:52:40.005Z,20.60
2022-09-22T16:55:37.751Z,20.50
2022-09-22T16:58:26.141Z,21.80
2022-09-22T17:01:19.631Z,23.50
2022-09-22T17:04:09.668Z,22.87
2022-09-22T17:06:58.371Z,23.47
2022-09-22T17:09:47.389Z,24.60
2022-09-22T17:12:36.589Z,24.57
2022-09-22T17:15:24.958Z,25.13
2022-09-22T17:18:14.581Z,25.63
2022-09-22T17:21:09.309Z,25.60
2022-09-22T17:24:00.632Z,26.17
2022-09-22T17:26:52.209Z,24.70
2022-09-22T17:29:40.506Z,24.97
2022-09-22T17:32:29.480Z,23.13
2022-09-22T17:35:19.267Z,22.27
2022-09-22T17:38:07.495Z,21.53
2022-09-22T17:41:07.291Z,21.50
2022-09-22T17:43:57.588Z,20.37
2022-09-22T17:47:11.428Z,21.13
2022-09-22T17:50:17.188Z,20.97
2022-09-22T17:53:24.568Z,20.77
2022-09-22T17:56:13.414Z,20.87
2022-09-22T17:59:01.774Z,20.70
2022-09-22T18:01:53.525Z,21.10
2022-09-22T18:04:42.809Z,22.60
2022-09-22T18:07:35.172Z,22.67
2022-09-22T18:10:32.505Z,23.10
2022-09-22T18:13:21.024Z,23.77
2022-09-22T18:16:21.226Z,23.23
2022-09-22T18:19:10.098Z,25.07
2022-09-22T18:21:58.762Z,25.40
2022-09-22T18:24:48.442Z,25.23
2022-09-22T18:27:39.132Z,26.10
2022-09-22T18:30:28.424Z,26.67
2022-09-22T18:33:18.633Z,26.73
2022-09-22T18:36:07.594Z,28.03
2022-09-22T18:38:56.442Z,29.10
2022-09-22T18:41:45.058Z,29.00
2022-09-22T18:44:35.261Z,28.97
2022-09-22T18:47:25.155Z,28.17
2022-09-22T18:50:13.861Z,29.73
2022-09-22T18:53:02.290Z,29.47
2022-09-22T18:55:52.856Z,30.03
2022-09-22T18:58:41.238Z,30.50
2022-09-22T19:01:34.539Z,29.90
2022-09-22T19:04:24.467Z,31.03
2022-09-22T19:07:30.230Z,32.07
2022-09-22T19:10:21.966Z,31.33
2022-09-22T19:13:11.230Z,31.83
2022-09-22T19:15:59.672Z,31.33
2022-09-22T19:18:49.957Z,32.40
2022-09-22T19:21:38.914Z,32.70
2022-09-22T19:24:27.204Z,32.60
2022-09-22T19:27:18.594Z,32.73
2022-09-22T19:30:08.320Z,33.23
2022-09-22T19:32:57.041Z,32.47
2022-09-22T19:35:46.758Z,32.17
2022-09-22T19:38:35.161Z,33.17
2022-09-22T19:41:26.962Z,31.30
2022-09-22T19:44:16.590Z,32.10
2022-09-22T19:47:04.992Z,31.30
2022-09-22T19:49:53.369Z,30.60
2022-09-22T19:52:43.084Z,31.00
2022-09-22T19:55:31.547Z,31.17
2022-09-22T19:58:19.896Z,31.77
2022-09-22T20:01:08.963Z,31.23
2022-09-22T20:03:57.456Z,30.23
2022-09-22T20:06:45.998Z,30.30
2022-09-22T20:09:35.958Z,29.20
2022-09-22T20:12:24.337Z,28.53
2022-09-22T20:15:15.653Z,27.93
2022-09-22T20:18:05.436Z,29.67
2022-09-22T20:20:55.572Z,29.87
2022-09-22T20:23:43.953Z,28.37
2022-09-22T20:26:33.885Z,28.30
2022-09-22T20:29:22.215Z,29.57
2022-09-22T20:32:10.572Z,29.90
2022-09-22T20:34:59.039Z,30.50
2022-09-22T20:37:47.488Z,30.07
2022-09-22T20:40:36.134Z,32.50
2022-09-22T20:43:27.619Z,33.87
2022-09-22T20:46:16.874Z,36.70
2022-09-22T20:49:06.312Z,36.90
2022-09-22T20:51:56.525Z,38.33
2022-09-22T20:54:46.577Z,39.23
2022-09-22T20:57:34.836Z,40.47
2022-09-22T21:00:25.060Z,39.83
2022-09-22T21:03:13.399Z,42.43
2022-09-22T21:06:02.691Z,41.77
2022-09-22T21:09:09.518Z,42.67
2022-09-22T21:11:58.207Z,41.43
2022-09-22T21:14:46.519Z,42.17
2022-09-22T21:17:36.231Z,40.83
2022-09-22T21:20:24.526Z,42.70
2022-09-22T21:23:13.894Z,42.70
2022-09-22T21:26:05.769Z,44.10
2022-09-22T21:28:54.337Z,43.50
2022-09-22T21:31:42.760Z,43.03
2022-09-22T21:34:32.549Z,42.43
2022-09-22T21:37:23.551Z,41.20
2022-09-22T21:40:11.931Z,42.57
2022-09-22T21:43:00.328Z,43.47
2022-09-22T21:45:48.949Z,42.33
2022-09-22T21:48:37.699Z,43.93
2022-09-22T21:51:27.755Z,43.50
2022-09-22T21:54:18.209Z,43.43
2022-09-22T21:57:06.579Z,42.93
2022-09-22T21:59:56.750Z,45.67
2022-09-22T22:03:02.707Z,44.37
2022-09-22T22:05:51.033Z,43.47
2022-09-22T22:08:42.954Z,46.30
2022-09-22T22:11:33.725Z,47.47
2022-09-22T22:14:23.353Z,49.03
2022-09-22T22:17:11.670Z,47.20
2022-09-22T22:19:59.954Z,45.10
2022-09-22T22:22:48.240Z,47.97
2022-09-22T22:25:38.994Z,47.97
2022-09-22T22:28:27.260Z,47.50
2022-09-22T22:31:17.715Z,49.57
2022-09-22T22:34:07.143Z,50.57
2022-09-22T22:36:56.451Z,52.87
2022-09-22T22:39:44.793Z,51.03
2022-09-22T22:42:34.471Z,53.47
2022-09-22T22:45:22.742Z,53.37
2022-09-22T22:48:11.760Z,54.03
2022-09-22T22:51:02.531Z,53.83
2022-09-22T22:53:55.771Z,54.20
2022-09-22T22:56:46.821Z,55.97
2022-09-22T22:59:38.604Z,55.10
2022-09-22T23:02:26.922Z,56.17
2022-09-22T23:05:15.219Z,55.57
2022-09-22T23:08:03.552Z,53.70
2022-09-22T23:10:51.966Z,56.07
2022-09-22T23:13:41.268Z,54.20
2022-09-22T23:16:33.294Z,54.80
2022-09-22T23:19:21.688Z,53.23
2022-09-22T23:22:10.344Z,51.93
2022-09-22T23:24:58.840Z,54.03
2022-09-22T23:27:48.838Z,52.13
2022-09-22T23:30:37.215Z,52.13
2022-09-22T23:33:28.908Z,51.87
2022-09-22T23:36:18.774Z,52.60
2022-09-22T23:39:07.267Z,52.63
2022-09-22T23:41:55.754Z,50.57
2022-09-22T23:44:44.196Z,50.63
2022-09-22T23:47:33.010Z,51.03
2022-09-22T23:50:23.466Z,49.83
2022-09-22T23:53:11.997Z,51.67
2022-09-22T23:56:00.556Z,51.93
2022-09-22T23:58:49.108Z,51.60
